Terminal Aerodrome Forecast
Issued by NWS

Home | Current Version | Previous Version | Text Only | Print | Product List | Glossary On
Versions: 1 2 3 4 5 6 7 8 9 10 11 12 13 14
211
FTUS41 KLWX 251502 AAA
TAFMTN
TAF AMD
KMTN 251502Z 2515/2612 17011G19KT P6SM SCT008 BKN200
     FM251700 17014G23KT P6SM SCT015 OVC060
     FM251900 18014G24KT 5SM -SHRA VCTS OVC060CB
     FM252000 23014G34KT 4SM -TSRA OVC040CB
     FM252200 28016G34KT P6SM -SHRA VCTS BKN060CB
     FM260000 28016G35KT P6SM BKN080
     FM260500 29015G27KT P6SM FEW040=

USA.gov is the U.S. government's official web portal to all federal, state and local government web resources and services.